Terminal Aerodrome Forecast
Issued by NWS

Home | Current Version | Previous Version | Text Only | Print | Product List | Glossary On
Versions: 1 2 3 4 5 6 7 8 9 10 11 12 13 14 15 16 17 18 19 20 21 22 23 24 25 26
000
FTUS44 KOHX 300520
TAFCKV
TAF
KCKV 300520Z 3006/0106 00000KT 5SM BR BKN100
      TEMPO 3006/3008 2SM BR FEW007 SCT025 BKN100
     FM300800 00000KT 2SM BR SCT007 SCT025
      TEMPO 3009/3013 3/4SM BR BKN003 BKN025
     FM301700 27006KT P6SM SCT025 BKN035 PROB30 3018/3022 5SM -SHRA
      OVC025=

USA.gov is the U.S. government's official web portal to all federal, state and local government web resources and services.